sensor_id;sensor_type;location;lat;lon;timestamp;temperature;humidity
45619;DHT22;31343;47.520;19.144;2022-07-06T00:01:54;19.50;99.90
45619;DHT22;31343;47.520;19.144;2022-07-06T00:04:20;19.50;99.90
45619;DHT22;31343;47.520;19.144;2022-07-06T00:06:46;19.50;99.90
45619;DHT22;31343;47.520;19.144;2022-07-06T00:09:12;19.50;99.90
45619;DHT22;31343;47.520;19.144;2022-07-06T00:11:38;19.50;99.90
45619;DHT22;31343;47.520;19.144;2022-07-06T00:14:04;19.50;99.90
45619;DHT22;31343;47.520;19.144;2022-07-06T00:16:30;19.30;99.90
45619;DHT22;31343;47.520;19.144;2022-07-06T00:18:56;19.30;99.90
45619;DHT22;31343;47.520;19.144;2022-07-06T00:21:21;19.30;99.90
45619;DHT22;31343;47.520;19.144;2022-07-06T00:23:47;19.30;99.90
45619;DHT22;31343;47.520;19.144;2022-07-06T00:26:13;19.30;99.90
45619;DHT22;31343;47.520;19.144;2022-07-06T00:28:39;19.40;99.90
45619;DHT22;31343;47.520;19.144;2022-07-06T00:31:04;19.30;99.90
45619;DHT22;31343;47.520;19.144;2022-07-06T00:33:31;19.30;99.90
45619;DHT22;31343;47.520;19.144;2022-07-06T00:35:57;19.40;99.90
45619;DHT22;31343;47.520;19.144;2022-07-06T00:38:22;19.30;99.90
45619;DHT22;31343;47.520;19.144;2022-07-06T00:40:48;19.30;99.90
45619;DHT22;31343;47.520;19.144;2022-07-06T00:43:14;19.30;99.90
45619;DHT22;31343;47.520;19.144;2022-07-06T00:45:39;19.20;99.90
45619;DHT22;31343;47.520;19.144;2022-07-06T00:48:05;19.20;99.90
45619;DHT22;31343;47.520;19.144;2022-07-06T00:50:31;19.20;99.90
45619;DHT22;31343;47.520;19.144;2022-07-06T00:53:01;19.10;99.90
45619;DHT22;31343;47.520;19.144;2022-07-06T00:55:30;19.20;99.90
45619;DHT22;31343;47.520;19.144;2022-07-06T00:57:56;19.20;99.90
45619;DHT22;31343;47.520;19.144;2022-07-06T01:00:25;19.10;99.90
45619;DHT22;31343;47.520;19.144;2022-07-06T01:02:51;19.20;99.90
45619;DHT22;31343;47.520;19.144;2022-07-06T01:05:17;19.10;99.90
45619;DHT22;31343;47.520;19.144;2022-07-06T01:07:45;19.10;99.90
45619;DHT22;31343;47.520;19.144;2022-07-06T01:10:12;19.00;99.90
45619;DHT22;31343;47.520;19.144;2022-07-06T01:12:40;19.00;99.90
45619;DHT22;31343;47.520;19.144;2022-07-06T01:15:12;19.00;99.90
45619;DHT22;31343;47.520;19.144;2022-07-06T01:17:39;19.00;99.90
45619;DHT22;31343;47.520;19.144;2022-07-06T01:20:18;19.00;99.90
45619;DHT22;31343;47.520;19.144;2022-07-06T01:22:45;19.00;99.90
45619;DHT22;31343;47.520;19.144;2022-07-06T01:25:13;19.00;99.90
45619;DHT22;31343;47.520;19.144;2022-07-06T01:27:40;19.00;99.90
45619;DHT22;31343;47.520;19.144;2022-07-06T01:30:16;19.00;99.90
45619;DHT22;31343;47.520;19.144;2022-07-06T01:32:44;19.00;99.90
45619;DHT22;31343;47.520;19.144;2022-07-06T01:35:15;19.00;99.90
45619;DHT22;31343;47.520;19.144;2022-07-06T01:37:42;18.90;99.90
45619;DHT22;31343;47.520;19.144;2022-07-06T01:40:10;18.90;99.90
45619;DHT22;31343;47.520;19.144;2022-07-06T01:42:37;18.90;99.90
45619;DHT22;31343;47.520;19.144;2022-07-06T01:45:04;18.90;99.90
45619;DHT22;31343;47.520;19.144;2022-07-06T01:47:30;18.90;99.90
45619;DHT22;31343;47.520;19.144;2022-07-06T01:50:06;18.90;99.90
45619;DHT22;31343;47.520;19.144;2022-07-06T01:52:32;18.90;99.90
45619;DHT22;31343;47.520;19.144;2022-07-06T01:54:58;18.90;99.90
45619;DHT22;31343;47.520;19.144;2022-07-06T01:57:24;18.80;99.90
45619;DHT22;31343;47.520;19.144;2022-07-06T01:59:50;18.80;99.90
45619;DHT22;31343;47.520;19.144;2022-07-06T02:02:15;18.80;99.90
45619;DHT22;31343;47.520;19.144;2022-07-06T02:04:42;18.90;99.90
45619;DHT22;31343;47.520;19.144;2022-07-06T02:07:08;18.90;99.90
45619;DHT22;31343;47.520;19.144;2022-07-06T02:09:33;18.90;99.90
45619;DHT22;31343;47.520;19.144;2022-07-06T02:11:59;18.90;99.90
45619;DHT22;31343;47.520;19.144;2022-07-06T02:14:25;18.80;99.90
45619;DHT22;31343;47.520;19.144;2022-07-06T02:16:50;18.80;99.90
45619;DHT22;31343;47.520;19.144;2022-07-06T02:19:16;18.80;99.90
45619;DHT22;31343;47.520;19.144;2022-07-06T02:21:41;18.70;99.90
45619;DHT22;31343;47.520;19.144;2022-07-06T02:24:07;18.80;99.90
45619;DHT22;31343;47.520;19.144;2022-07-06T02:26:33;18.80;99.90
45619;DHT22;31343;47.520;19.144;2022-07-06T02:28:58;18.80;99.90
45619;DHT22;31343;47.520;19.144;2022-07-06T02:31:24;18.80;99.90
45619;DHT22;31343;47.520;19.144;2022-07-06T02:33:49;18.80;99.90
45619;DHT22;31343;47.520;19.144;2022-07-06T02:36:15;18.70;99.90
45619;DHT22;31343;47.520;19.144;2022-07-06T02:38:41;18.70;99.90
45619;DHT22;31343;47.520;19.144;2022-07-06T02:41:06;18.70;99.90
45619;DHT22;31343;47.520;19.144;2022-07-06T02:43:32;18.60;99.90
45619;DHT22;31343;47.520;19.144;2022-07-06T02:45:57;18.70;99.90
45619;DHT22;31343;47.520;19.144;2022-07-06T02:48:24;18.80;99.90
45619;DHT22;31343;47.520;19.144;2022-07-06T02:50:49;18.60;99.90
45619;DHT22;31343;47.520;19.144;2022-07-06T02:53:17;18.70;99.90
45619;DHT22;31343;47.520;19.144;2022-07-06T02:55:43;18.60;99.90
45619;DHT22;31343;47.520;19.144;2022-07-06T02:58:09;18.60;99.90
45619;DHT22;31343;47.520;19.144;2022-07-06T03:00:35;18.60;99.90
45619;DHT22;31343;47.520;19.144;2022-07-06T03:03:00;18.70;99.90
45619;DHT22;31343;47.520;19.144;2022-07-06T03:05:26;18.60;99.90
45619;DHT22;31343;47.520;19.144;2022-07-06T03:07:51;18.70;99.90
45619;DHT22;31343;47.520;19.144;2022-07-06T03:10:17;18.60;99.90
45619;DHT22;31343;47.520;19.144;2022-07-06T03:12:43;18.60;99.90
45619;DHT22;31343;47.520;19.144;2022-07-06T03:15:10;18.60;99.90
45619;DHT22;31343;47.520;19.144;2022-07-06T03:17:36;18.70;99.90
45619;DHT22;31343;47.520;19.144;2022-07-06T03:20:03;18.70;99.90
45619;DHT22;31343;47.520;19.144;2022-07-06T03:22:29;18.60;99.90
45619;DHT22;31343;47.520;19.144;2022-07-06T03:24:55;18.70;99.90
45619;DHT22;31343;47.520;19.144;2022-07-06T03:27:20;18.70;99.90
45619;DHT22;31343;47.520;19.144;2022-07-06T03:29:46;18.80;99.90
45619;DHT22;31343;47.520;19.144;2022-07-06T03:32:11;18.70;99.90
45619;DHT22;31343;47.520;19.144;2022-07-06T03:34:37;18.70;99.90
45619;DHT22;31343;47.520;19.144;2022-07-06T03:37:03;18.70;99.90
45619;DHT22;31343;47.520;19.144;2022-07-06T03:39:28;18.70;99.90
45619;DHT22;31343;47.520;19.144;2022-07-06T03:41:54;18.80;99.90
45619;DHT22;31343;47.520;19.144;2022-07-06T03:44:20;18.80;99.90
45619;DHT22;31343;47.520;19.144;2022-07-06T03:46:45;18.80;99.90
45619;DHT22;31343;47.520;19.144;2022-07-06T03:49:11;18.80;99.90
45619;DHT22;31343;47.520;19.144;2022-07-06T03:51:36;18.80;99.90
45619;DHT22;31343;47.520;19.144;2022-07-06T03:54:03;18.80;99.90
45619;DHT22;31343;47.520;19.144;2022-07-06T03:56:28;18.80;99.90
45619;DHT22;31343;47.520;19.144;2022-07-06T03:58:59;18.80;99.90
45619;DHT22;31343;47.520;19.144;2022-07-06T04:01:25;18.80;99.90
45619;DHT22;31343;47.520;19.144;2022-07-06T04:03:50;18.80;99.90
45619;DHT22;31343;47.520;19.144;2022-07-06T04:06:16;18.80;99.90
45619;DHT22;31343;47.520;19.144;2022-07-06T04:08:42;18.80;99.90
45619;DHT22;31343;47.520;19.144;2022-07-06T04:11:08;18.80;99.90
45619;DHT22;31343;47.520;19.144;2022-07-06T04:13:33;18.80;99.90
45619;DHT22;31343;47.520;19.144;2022-07-06T04:15:59;18.70;99.90
45619;DHT22;31343;47.520;19.144;2022-07-06T04:18:25;18.80;99.90
45619;DHT22;31343;47.520;19.144;2022-07-06T04:20:51;18.80;99.90
45619;DHT22;31343;47.520;19.144;2022-07-06T04:23:16;18.90;99.90
45619;DHT22;31343;47.520;19.144;2022-07-06T04:25:42;18.90;99.90
45619;DHT22;31343;47.520;19.144;2022-07-06T04:28:08;18.90;99.90
45619;DHT22;31343;47.520;19.144;2022-07-06T04:30:33;19.00;99.90
45619;DHT22;31343;47.520;19.144;2022-07-06T04:32:59;19.20;99.90
45619;DHT22;31343;47.520;19.144;2022-07-06T04:35:25;19.30;99.90
45619;DHT22;31343;47.520;19.144;2022-07-06T04:37:50;19.40;99.90
45619;DHT22;31343;47.520;19.144;2022-07-06T04:40:16;19.40;99.90
45619;DHT22;31343;47.520;19.144;2022-07-06T04:42:42;19.50;99.90
45619;DHT22;31343;47.520;19.144;2022-07-06T04:45:09;19.60;99.90
45619;DHT22;31343;47.520;19.144;2022-07-06T04:47:35;19.70;99.90
45619;DHT22;31343;47.520;19.144;2022-07-06T04:50:01;19.70;99.90
45619;DHT22;31343;47.520;19.144;2022-07-06T04:52:27;19.80;99.90
45619;DHT22;31343;47.520;19.144;2022-07-06T04:54:57;19.90;99.90
45619;DHT22;31343;47.520;19.144;2022-07-06T04:57:22;19.90;99.90
45619;DHT22;31343;47.520;19.144;2022-07-06T04:59:51;20.00;99.90
45619;DHT22;31343;47.520;19.144;2022-07-06T05:02:17;20.10;99.90
45619;DHT22;31343;47.520;19.144;2022-07-06T05:04:42;20.20;99.90
45619;DHT22;31343;47.520;19.144;2022-07-06T05:07:08;20.30;99.90
45619;DHT22;31343;47.520;19.144;2022-07-06T05:09:34;20.40;99.90
45619;DHT22;31343;47.520;19.144;2022-07-06T05:12:01;20.60;99.90
45619;DHT22;31343;47.520;19.144;2022-07-06T05:14:27;20.80;99.90
45619;DHT22;31343;47.520;19.144;2022-07-06T05:16:52;21.00;99.90
45619;DHT22;31343;47.520;19.144;2022-07-06T05:19:18;21.10;99.90
45619;DHT22;31343;47.520;19.144;2022-07-06T05:21:44;21.40;99.90
45619;DHT22;31343;47.520;19.144;2022-07-06T05:24:09;21.60;99.90
45619;DHT22;31343;47.520;19.144;2022-07-06T05:26:35;22.00;99.90
45619;DHT22;31343;47.520;19.144;2022-07-06T05:29:00;22.30;99.90
45619;DHT22;31343;47.520;19.144;2022-07-06T05:31:26;22.70;99.90
45619;DHT22;31343;47.520;19.144;2022-07-06T05:33:51;23.00;99.90
45619;DHT22;31343;47.520;19.144;2022-07-06T05:36:17;23.30;99.90
45619;DHT22;31343;47.520;19.144;2022-07-06T05:38:43;23.80;99.90
45619;DHT22;31343;47.520;19.144;2022-07-06T05:41:09;24.80;99.90
45619;DHT22;31343;47.520;19.144;2022-07-06T05:43:38;26.10;98.80
45619;DHT22;31343;47.520;19.144;2022-07-06T05:46:04;27.00;97.50
45619;DHT22;31343;47.520;19.144;2022-07-06T05:48:29;27.80;96.40
45619;DHT22;31343;47.520;19.144;2022-07-06T05:51:14;28.70;94.80
45619;DHT22;31343;47.520;19.144;2022-07-06T05:53:39;29.10;93.60
45619;DHT22;31343;47.520;19.144;2022-07-06T05:56:05;29.20;92.90
45619;DHT22;31343;47.520;19.144;2022-07-06T05:58:30;29.30;92.80
45619;DHT22;31343;47.520;19.144;2022-07-06T06:00:56;30.20;91.90
45619;DHT22;31343;47.520;19.144;2022-07-06T06:03:22;30.10;91.30
45619;DHT22;31343;47.520;19.144;2022-07-06T06:05:48;30.60;90.90
45619;DHT22;31343;47.520;19.144;2022-07-06T06:08:13;31.00;90.40
45619;DHT22;31343;47.520;19.144;2022-07-06T06:10:39;30.30;90.10
45619;DHT22;31343;47.520;19.144;2022-07-06T06:13:05;30.70;90.00
45619;DHT22;31343;47.520;19.144;2022-07-06T06:15:30;30.70;89.00
45619;DHT22;31343;47.520;19.144;2022-07-06T06:17:56;30.70;88.10
45619;DHT22;31343;47.520;19.144;2022-07-06T06:20:22;31.00;88.80
45619;DHT22;31343;47.520;19.144;2022-07-06T06:25:16;31.30;86.90
45619;DHT22;31343;47.520;19.144;2022-07-06T06:27:42;32.30;85.80
45619;DHT22;31343;47.520;19.144;2022-07-06T06:30:08;31.80;83.60
45619;DHT22;31343;47.520;19.144;2022-07-06T06:32:34;32.20;84.50
45619;DHT22;31343;47.520;19.144;2022-07-06T06:35:00;32.00;83.60
45619;DHT22;31343;47.520;19.144;2022-07-06T06:37:26;32.20;83.20
45619;DHT22;31343;47.520;19.144;2022-07-06T06:39:51;32.50;82.80
45619;DHT22;31343;47.520;19.144;2022-07-06T06:42:17;32.50;82.10
45619;DHT22;31343;47.520;19.144;2022-07-06T06:44:43;32.90;81.30
45619;DHT22;31343;47.520;19.144;2022-07-06T06:47:08;33.40;80.40
45619;DHT22;31343;47.520;19.144;2022-07-06T06:49:34;32.90;80.90
45619;DHT22;31343;47.520;19.144;2022-07-06T06:51:59;33.20;80.80
45619;DHT22;31343;47.520;19.144;2022-07-06T06:54:25;33.40;80.20
45619;DHT22;31343;47.520;19.144;2022-07-06T06:56:51;33.00;79.10
45619;DHT22;31343;47.520;19.144;2022-07-06T06:59:16;32.90;80.50
45619;DHT22;31343;47.520;19.144;2022-07-06T07:01:42;32.40;80.30
45619;DHT22;31343;47.520;19.144;2022-07-06T07:04:08;32.30;80.60
45619;DHT22;31343;47.520;19.144;2022-07-06T07:06:33;32.20;81.90
45619;DHT22;31343;47.520;19.144;2022-07-06T07:08:59;31.40;82.50
45619;DHT22;31343;47.520;19.144;2022-07-06T07:11:25;31.00;82.70
45619;DHT22;31343;47.520;19.144;2022-07-06T07:13:51;31.50;83.90
45619;DHT22;31343;47.520;19.144;2022-07-06T07:16:17;31.00;83.40
45619;DHT22;31343;47.520;19.144;2022-07-06T07:18:43;30.90;84.30
45619;DHT22;31343;47.520;19.144;2022-07-06T07:21:08;31.10;83.90
45619;DHT22;31343;47.520;19.144;2022-07-06T07:23:34;30.60;84.00
45619;DHT22;31343;47.520;19.144;2022-07-06T07:25:59;30.70;83.60
45619;DHT22;31343;47.520;19.144;2022-07-06T07:28:25;30.90;84.20
45619;DHT22;31343;47.520;19.144;2022-07-06T07:30:51;30.60;84.40
45619;DHT22;31343;47.520;19.144;2022-07-06T07:33:17;30.70;83.30
45619;DHT22;31343;47.520;19.144;2022-07-06T07:35:42;30.70;84.70
45619;DHT22;31343;47.520;19.144;2022-07-06T07:38:08;31.20;84.10
45619;DHT22;31343;47.520;19.144;2022-07-06T07:40:33;31.30;82.80
45619;DHT22;31343;47.520;19.144;2022-07-06T07:43:01;31.40;82.70
45619;DHT22;31343;47.520;19.144;2022-07-06T07:45:27;31.70;82.00
45619;DHT22;31343;47.520;19.144;2022-07-06T07:47:53;31.70;82.00
45619;DHT22;31343;47.520;19.144;2022-07-06T07:50:18;32.00;81.80
45619;DHT22;31343;47.520;19.144;2022-07-06T07:52:44;32.00;80.50
45619;DHT22;31343;47.520;19.144;2022-07-06T07:55:10;32.10;79.20
45619;DHT22;31343;47.520;19.144;2022-07-06T07:57:36;32.10;80.00
45619;DHT22;31343;47.520;19.144;2022-07-06T08:00:02;31.70;79.60
45619;DHT22;31343;47.520;19.144;2022-07-06T08:02:27;31.90;80.60
45619;DHT22;31343;47.520;19.144;2022-07-06T08:04:53;32.30;79.80
45619;DHT22;31343;47.520;19.144;2022-07-06T08:07:19;32.80;79.10
45619;DHT22;31343;47.520;19.144;2022-07-06T08:09:44;33.20;78.20
45619;DHT22;31343;47.520;19.144;2022-07-06T08:12:10;33.50;77.10
45619;DHT22;31343;47.520;19.144;2022-07-06T08:14:36;33.60;76.20
45619;DHT22;31343;47.520;19.144;2022-07-06T08:17:03;33.70;75.50
45619;DHT22;31343;47.520;19.144;2022-07-06T08:19:28;33.60;74.60
45619;DHT22;31343;47.520;19.144;2022-07-06T08:21:56;33.90;74.80
45619;DHT22;31343;47.520;19.144;2022-07-06T08:24:22;34.20;74.00
45619;DHT22;31343;47.520;19.144;2022-07-06T08:26:47;34.50;74.80
45619;DHT22;31343;47.520;19.144;2022-07-06T08:29:13;34.80;74.20
45619;DHT22;31343;47.520;19.144;2022-07-06T08:31:39;34.70;73.40
45619;DHT22;31343;47.520;19.144;2022-07-06T08:34:04;34.50;72.50
45619;DHT22;31343;47.520;19.144;2022-07-06T08:36:30;34.30;73.00
45619;DHT22;31343;47.520;19.144;2022-07-06T08:38:56;34.60;74.00
45619;DHT22;31343;47.520;19.144;2022-07-06T08:41:25;35.00;72.00
45619;DHT22;31343;47.520;19.144;2022-07-06T08:43:52;35.30;70.70
45619;DHT22;31343;47.520;19.144;2022-07-06T08:46:19;35.20;69.80
45619;DHT22;31343;47.520;19.144;2022-07-06T08:48:45;35.00;70.20
45619;DHT22;31343;47.520;19.144;2022-07-06T08:51:13;35.30;70.80
45619;DHT22;31343;47.520;19.144;2022-07-06T08:53:41;35.40;68.80
45619;DHT22;31343;47.520;19.144;2022-07-06T08:56:07;34.00;69.30
45619;DHT22;31343;47.520;19.144;2022-07-06T08:58:33;32.70;71.80
45619;DHT22;31343;47.520;19.144;2022-07-06T09:01:00;33.00;72.50
45619;DHT22;31343;47.520;19.144;2022-07-06T09:03:27;33.10;72.00
45619;DHT22;31343;47.520;19.144;2022-07-06T09:05:58;33.00;71.00
45619;DHT22;31343;47.520;19.144;2022-07-06T09:08:27;32.40;72.10
45619;DHT22;31343;47.520;19.144;2022-07-06T09:10:53;32.30;73.50
45619;DHT22;31343;47.520;19.144;2022-07-06T09:13:18;32.40;74.50
45619;DHT22;31343;47.520;19.144;2022-07-06T09:15:44;32.50;74.00
45619;DHT22;31343;47.520;19.144;2022-07-06T09:18:10;32.40;72.70
45619;DHT22;31343;47.520;19.144;2022-07-06T09:20:36;32.70;73.20
45619;DHT22;31343;47.520;19.144;2022-07-06T09:23:04;32.60;73.10
45619;DHT22;31343;47.520;19.144;2022-07-06T09:25:30;32.40;73.20
45619;DHT22;31343;47.520;19.144;2022-07-06T09:27:57;32.50;72.90
45619;DHT22;31343;47.520;19.144;2022-07-06T09:30:24;32.20;72.60
45619;DHT22;31343;47.520;19.144;2022-07-06T09:32:55;32.00;73.30
45619;DHT22;31343;47.520;19.144;2022-07-06T09:35:28;31.80;74.40
45619;DHT22;31343;47.520;19.144;2022-07-06T09:40:25;32.30;72.70
45619;DHT22;31343;47.520;19.144;2022-07-06T09:42:51;32.30;72.60
45619;DHT22;31343;47.520;19.144;2022-07-06T09:45:22;31.90;73.80
45619;DHT22;31343;47.520;19.144;2022-07-06T09:47:48;32.00;73.40
45619;DHT22;31343;47.520;19.144;2022-07-06T09:50:15;32.10;73.40
45619;DHT22;31343;47.520;19.144;2022-07-06T09:52:53;32.10;72.90
45619;DHT22;31343;47.520;19.144;2022-07-06T09:55:21;32.10;74.00
45619;DHT22;31343;47.520;19.144;2022-07-06T09:57:54;32.10;73.20
45619;DHT22;31343;47.520;19.144;2022-07-06T10:00:20;31.60;71.60
45619;DHT22;31343;47.520;19.144;2022-07-06T10:02:47;31.20;72.40
45619;DHT22;31343;47.520;19.144;2022-07-06T10:05:16;31.10;74.40
45619;DHT22;31343;47.520;19.144;2022-07-06T10:07:45;31.40;74.00
45619;DHT22;31343;47.520;19.144;2022-07-06T10:10:11;31.30;73.30
45619;DHT22;31343;47.520;19.144;2022-07-06T10:12:37;31.20;72.60
45619;DHT22;31343;47.520;19.144;2022-07-06T10:15:06;31.30;73.10
45619;DHT22;31343;47.520;19.144;2022-07-06T10:17:32;31.30;71.20
45619;DHT22;31343;47.520;19.144;2022-07-06T10:19:58;31.30;73.20
45619;DHT22;31343;47.520;19.144;2022-07-06T10:22:24;31.70;73.20
45619;DHT22;31343;47.520;19.144;2022-07-06T10:24:50;31.60;72.40
45619;DHT22;31343;47.520;19.144;2022-07-06T10:27:16;31.80;71.40
45619;DHT22;31343;47.520;19.144;2022-07-06T10:29:42;31.70;71.40
45619;DHT22;31343;47.520;19.144;2022-07-06T10:32:09;31.50;72.00
45619;DHT22;31343;47.520;19.144;2022-07-06T10:34:36;31.50;71.50
45619;DHT22;31343;47.520;19.144;2022-07-06T10:37:02;31.80;70.50
45619;DHT22;31343;47.520;19.144;2022-07-06T10:39:38;31.90;70.90
45619;DHT22;31343;47.520;19.144;2022-07-06T10:42:48;32.70;69.90
45619;DHT22;31343;47.520;19.144;2022-07-06T10:46:05;33.00;68.70
45619;DHT22;31343;47.520;19.144;2022-07-06T10:50:39;33.80;67.60
45619;DHT22;31343;47.520;19.144;2022-07-06T10:53:16;34.20;66.90
45619;DHT22;31343;47.520;19.144;2022-07-06T10:55:45;34.60;64.70
45619;DHT22;31343;47.520;19.144;2022-07-06T10:58:13;34.30;64.70
45619;DHT22;31343;47.520;19.144;2022-07-06T11:00:47;34.80;65.40
45619;DHT22;31343;47.520;19.144;2022-07-06T11:03:40;35.00;65.40
45619;DHT22;31343;47.520;19.144;2022-07-06T11:06:11;35.40;63.80
45619;DHT22;31343;47.520;19.144;2022-07-06T11:09:01;35.30;63.10
45619;DHT22;31343;47.520;19.144;2022-07-06T11:14:06;36.60;61.10
45619;DHT22;31343;47.520;19.144;2022-07-06T11:16:37;36.50;60.40
45619;DHT22;31343;47.520;19.144;2022-07-06T11:24:01;36.80;58.00
45619;DHT22;31343;47.520;19.144;2022-07-06T11:26:27;37.00;58.10
45619;DHT22;31343;47.520;19.144;2022-07-06T11:28:54;37.30;56.60
45619;DHT22;31343;47.520;19.144;2022-07-06T11:31:20;36.90;57.00
45619;DHT22;31343;47.520;19.144;2022-07-06T11:33:47;36.80;57.40
45619;DHT22;31343;47.520;19.144;2022-07-06T11:36:21;37.00;55.00
45619;DHT22;31343;47.520;19.144;2022-07-06T11:38:49;37.30;56.10
45619;DHT22;31343;47.520;19.144;2022-07-06T11:41:15;38.10;55.10
45619;DHT22;31343;47.520;19.144;2022-07-06T11:43:46;38.60;54.10
45619;DHT22;31343;47.520;19.144;2022-07-06T11:46:29;39.10;53.30
45619;DHT22;31343;47.520;19.144;2022-07-06T11:48:58;39.80;52.20
45619;DHT22;31343;47.520;19.144;2022-07-06T11:51:25;39.70;51.60
45619;DHT22;31343;47.520;19.144;2022-07-06T11:53:54;39.70;50.80
45619;DHT22;31343;47.520;19.144;2022-07-06T11:56:20;39.20;51.30
45619;DHT22;31343;47.520;19.144;2022-07-06T11:58:52;38.30;52.00
45619;DHT22;31343;47.520;19.144;2022-07-06T12:01:18;38.50;52.40
45619;DHT22;31343;47.520;19.144;2022-07-06T12:03:44;38.90;51.00
45619;DHT22;31343;47.520;19.144;2022-07-06T12:06:21;38.70;51.40
45619;DHT22;31343;47.520;19.144;2022-07-06T12:09:00;38.20;51.40
45619;DHT22;31343;47.520;19.144;2022-07-06T12:11:30;38.10;51.40
45619;DHT22;31343;47.520;19.144;2022-07-06T12:13:59;38.00;51.10
45619;DHT22;31343;47.520;19.144;2022-07-06T12:16:30;37.00;50.80
45619;DHT22;31343;47.520;19.144;2022-07-06T12:18:56;37.00;51.50
45619;DHT22;31343;47.520;19.144;2022-07-06T12:21:22;37.40;50.90
45619;DHT22;31343;47.520;19.144;2022-07-06T12:23:51;37.40;50.00
45619;DHT22;31343;47.520;19.144;2022-07-06T12:26:19;37.10;50.10
45619;DHT22;31343;47.520;19.144;2022-07-06T12:28:46;36.50;50.60
45619;DHT22;31343;47.520;19.144;2022-07-06T12:31:37;36.50;51.50
45619;DHT22;31343;47.520;19.144;2022-07-06T12:34:04;36.80;50.60
45619;DHT22;31343;47.520;19.144;2022-07-06T12:36:30;36.90;50.60
45619;DHT22;31343;47.520;19.144;2022-07-06T12:38:56;37.20;49.90
45619;DHT22;31343;47.520;19.144;2022-07-06T12:41:26;37.20;51.20
45619;DHT22;31343;47.520;19.144;2022-07-06T12:44:01;36.90;50.90
45619;DHT22;31343;47.520;19.144;2022-07-06T12:46:32;36.90;51.40
45619;DHT22;31343;47.520;19.144;2022-07-06T12:49:00;35.90;50.70
45619;DHT22;31343;47.520;19.144;2022-07-06T12:51:26;35.50;51.20
45619;DHT22;31343;47.520;19.144;2022-07-06T12:53:53;35.10;51.40
45619;DHT22;31343;47.520;19.144;2022-07-06T12:56:36;34.70;51.70
45619;DHT22;31343;47.520;19.144;2022-07-06T12:59:02;34.10;52.20
45619;DHT22;31343;47.520;19.144;2022-07-06T13:01:28;33.40;51.90
45619;DHT22;31343;47.520;19.144;2022-07-06T13:03:55;33.30;53.20
45619;DHT22;31343;47.520;19.144;2022-07-06T13:06:33;33.10;52.80
45619;DHT22;31343;47.520;19.144;2022-07-06T13:08:58;33.00;52.90
45619;DHT22;31343;47.520;19.144;2022-07-06T13:11:25;33.00;53.20
45619;DHT22;31343;47.520;19.144;2022-07-06T13:13:51;32.80;53.40
45619;DHT22;31343;47.520;19.144;2022-07-06T13:16:17;32.80;53.40
45619;DHT22;31343;47.520;19.144;2022-07-06T13:18:43;32.80;53.40
45619;DHT22;31343;47.520;19.144;2022-07-06T13:21:08;32.60;53.40
45619;DHT22;31343;47.520;19.144;2022-07-06T13:23:34;32.40;53.50
45619;DHT22;31343;47.520;19.144;2022-07-06T13:26:00;32.30;53.10
45619;DHT22;31343;47.520;19.144;2022-07-06T13:28:25;32.20;53.40
45619;DHT22;31343;47.520;19.144;2022-07-06T13:30:51;32.10;52.90
45619;DHT22;31343;47.520;19.144;2022-07-06T13:33:17;32.00;53.40
45619;DHT22;31343;47.520;19.144;2022-07-06T13:35:43;31.80;54.00
45619;DHT22;31343;47.520;19.144;2022-07-06T13:38:08;31.80;53.80
45619;DHT22;31343;47.520;19.144;2022-07-06T13:40:34;31.70;54.10
45619;DHT22;31343;47.520;19.144;2022-07-06T13:43:01;31.50;54.00
45619;DHT22;31343;47.520;19.144;2022-07-06T13:45:27;31.40;54.80
45619;DHT22;31343;47.520;19.144;2022-07-06T13:47:53;31.50;55.60
45619;DHT22;31343;47.520;19.144;2022-07-06T13:50:18;31.50;55.60
45619;DHT22;31343;47.520;19.144;2022-07-06T13:52:44;31.40;56.40
45619;DHT22;31343;47.520;19.144;2022-07-06T13:55:10;31.40;57.00
45619;DHT22;31343;47.520;19.144;2022-07-06T13:57:36;31.30;56.50
45619;DHT22;31343;47.520;19.144;2022-07-06T14:00:03;31.20;56.70
45619;DHT22;31343;47.520;19.144;2022-07-06T14:02:29;31.10;56.30
45619;DHT22;31343;47.520;19.144;2022-07-06T14:04:55;31.10;57.10
45619;DHT22;31343;47.520;19.144;2022-07-06T14:07:21;31.00;57.10
45619;DHT22;31343;47.520;19.144;2022-07-06T14:09:46;30.90;58.00
45619;DHT22;31343;47.520;19.144;2022-07-06T14:12:17;30.90;57.60
45619;DHT22;31343;47.520;19.144;2022-07-06T14:14:43;30.90;58.00
45619;DHT22;31343;47.520;19.144;2022-07-06T14:17:08;30.80;56.90
45619;DHT22;31343;47.520;19.144;2022-07-06T14:19:34;30.80;56.90
45619;DHT22;31343;47.520;19.144;2022-07-06T14:22:00;30.70;56.60
45619;DHT22;31343;47.520;19.144;2022-07-06T14:24:26;30.60;57.00
45619;DHT22;31343;47.520;19.144;2022-07-06T14:26:51;30.60;57.60
45619;DHT22;31343;47.520;19.144;2022-07-06T14:29:17;30.50;57.20
45619;DHT22;31343;47.520;19.144;2022-07-06T14:31:43;30.60;56.70
45619;DHT22;31343;47.520;19.144;2022-07-06T14:34:08;30.60;57.20
45619;DHT22;31343;47.520;19.144;2022-07-06T14:36:35;30.50;57.10
45619;DHT22;31343;47.520;19.144;2022-07-06T14:39:03;30.40;57.10
45619;DHT22;31343;47.520;19.144;2022-07-06T14:41:29;30.30;57.40
45619;DHT22;31343;47.520;19.144;2022-07-06T14:43:55;30.30;56.60
45619;DHT22;31343;47.520;19.144;2022-07-06T14:46:21;30.20;56.70
45619;DHT22;31343;47.520;19.144;2022-07-06T14:48:47;30.30;57.90
45619;DHT22;31343;47.520;19.144;2022-07-06T14:51:13;30.30;58.00
45619;DHT22;31343;47.520;19.144;2022-07-06T14:53:38;30.10;56.90
45619;DHT22;31343;47.520;19.144;2022-07-06T14:56:04;30.10;57.00
45619;DHT22;31343;47.520;19.144;2022-07-06T14:58:30;30.00;57.70
45619;DHT22;31343;47.520;19.144;2022-07-06T15:00:56;30.00;57.60
45619;DHT22;31343;47.520;19.144;2022-07-06T15:03:22;30.00;56.60
45619;DHT22;31343;47.520;19.144;2022-07-06T15:05:48;29.90;57.20
45619;DHT22;31343;47.520;19.144;2022-07-06T15:08:14;29.90;56.20
45619;DHT22;31343;47.520;19.144;2022-07-06T15:10:41;29.90;55.70
45619;DHT22;31343;47.520;19.144;2022-07-06T15:13:07;29.70;55.70
45619;DHT22;31343;47.520;19.144;2022-07-06T15:15:35;29.70;54.80
45619;DHT22;31343;47.520;19.144;2022-07-06T15:18:01;29.70;54.10
45619;DHT22;31343;47.520;19.144;2022-07-06T15:20:26;29.50;54.30
45619;DHT22;31343;47.520;19.144;2022-07-06T15:22:52;29.50;54.10
45619;DHT22;31343;47.520;19.144;2022-07-06T15:25:18;29.50;54.60
45619;DHT22;31343;47.520;19.144;2022-07-06T15:27:45;29.50;54.40
45619;DHT22;31343;47.520;19.144;2022-07-06T15:30:11;29.50;53.80